| time (UTC) | temp F | wind direction | speed MPH | gust MPH | rain 1hr in | rain 24hr in | rain mn in | humidity % | barometer mb |
| 20260905183040 | 80 | 333 | 1.0 | 7.0 | 0.00 | 0.00 | 0.00 | 50 | 1009.9 |
| 20260905181559 | 81 | 328 | 1.0 | 5.0 | 0.00 | 0.00 | 0.00 | 51 | 1010.1 |
| 20260905180040 | 76 | 28 | 3.0 | 8.0 | 0.00 | 0.00 | 0.00 | 57 | 1010.2 |
| 20260905174549 | 79 | 291 | 2.0 | 11.0 | 0.00 | 0.00 | 0.00 | 53 | 1010.5 |
| 20260905173041 | 78 | 60 | 2.0 | 8.0 | 0.00 | 0.00 | 0.00 | 54 | 1010.6 |
| 20260905171544 | 78 | 32 | 3.0 | 8.0 | 0.00 | 0.00 | 0.00 | 53 | 1010.7 |
| 20260905170041 | 76 | 281 | 3.0 | 10.0 | 0.00 | 0.00 | 0.00 | 56 | 1010.5 |
| 20260905164539 | 77 | 318 | 2.0 | 8.0 | 0.00 | 0.00 | 0.00 | 57 | 1010.4 |
| 20260905163041 | 75 | 317 | 2.0 | 11.0 | 0.00 | 0.00 | 0.00 | 58 | 1010.6 |
| 20260905161540 | 78 | 306 | 2.0 | 9.0 | 0.00 | 0.00 | 0.00 | 54 | 1010.6 |
| 20260905160107 | 76 | 360 | 4.0 | 12.0 | 0.00 | 0.00 | 0.00 | 57 | 1010.6 |
| 20260905154547 | 77 | 275 | 3.0 | 8.0 | 0.00 | 0.00 | 0.00 | 56 | 1010.8 |
| 20260905153041 | 77 | 19 | 4.0 | 11.0 | 0.00 | 0.00 | 0.00 | 56 | 1010.5 |
| 20260905151541 | 76 | 61 | 4.0 | 9.0 | 0.00 | 0.00 | 0.00 | 57 | 1010.8 |
| 20260905150038 | 77 | 322 | 2.0 | 11.0 | 0.00 | 0.00 | 0.00 | 58 | 1010.7 |
| 20260905144543 | 76 | 342 | 3.0 | 11.0 | 0.00 | 0.00 | 0.00 | 58 | 1010.7 |
| 20260905143041 | 75 | 331 | 3.0 | 15.0 | 0.00 | 0.00 | 0.00 | 61 | 1010.7 |
| 20260905141543 | 74 | 206 | 2.0 | 8.0 | 0.00 | 0.00 | 0.00 | 63 | 1010.8 |
| 20260905140041 | 75 | 65 | 2.0 | 10.0 | 0.00 | 0.00 | 0.00 | 66 | 1010.7 |
| 20260905134541 | 73 | 313 | 3.0 | 11.0 | 0.00 | 0.00 | 0.00 | 66 | 1010.8 |
| 20260905133041 | 72 | 26 | 2.0 | 7.0 | 0.00 | 0.00 | 0.00 | 69 | 1010.6 |
| 20260905131540 | 72 | 286 | 2.0 | 8.0 | 0.00 | 0.00 | 0.00 | 68 | 1010.9 |
| 20260905130042 | 72 | 0 | 2.0 | 7.0 | 0.00 | 0.00 | 0.00 | 68 | 1011.1 |
| 20260905124543 | 71 | 314 | 3.0 | 11.0 | 0.00 | 0.00 | 0.00 | 70 | 1011.1 |
| 20260905123040 | 70 | 9 | 2.0 | 7.0 | 0.00 | 0.00 | 0.00 | 74 | 1011.0 |
| 20260905121543 | 68 | 319 | 2.0 | 7.0 | 0.00 | 0.00 | 0.00 | 77 | 1010.8 |
| 20260905120042 | 67 | 9 | 2.0 | 6.0 | 0.00 | 0.00 | 0.00 | 79 | 1011.2 |
| 20260905114539 | 67 | 350 | 1.0 | 4.0 | 0.00 | 0.00 | 0.00 | 79 | 1011.0 |
| 20260905113040 | 66 | 307 | 2.0 | 4.0 | 0.00 | 0.00 | 0.00 | 83 | 1010.7 |
| 20260905111538 | 65 | 319 | 2.0 | 3.0 | 0.00 | 0.00 | 0.00 | 85 | 1010.5 |
| 20260905110041 | 64 | 306 | 1.0 | 3.0 | 0.00 | 0.00 | 0.00 | 86 | 1010.2 |
| 20260905104542 | 64 | 298 | 2.0 | 4.0 | 0.00 | 0.00 | 0.00 | 86 | 1010.2 |
| 20260905103045 | 64 | 332 | 1.0 | 3.0 | 0.00 | 0.00 | 0.00 | 86 | 1010.1 |
| 20260905101538 | 64 | 306 | 1.0 | 3.0 | 0.00 | 0.00 | 0.00 | 86 | 1010.2 |
| 20260905100104 | 64 | 328 | 0.0 | 2.0 | 0.00 | 0.00 | 0.00 | 85 | 1010.1 |
| 20260905094543 | 65 | 280 | 1.0 | 2.0 | 0.00 | 0.00 | 0.00 | 83 | 1010.0 |
| 20260905093040 | 65 | 276 | 0.0 | 4.0 | 0.00 | 0.00 | 0.00 | 81 | 1009.8 |
| 20260905091613 | 66 | 352 | 1.0 | 3.0 | 0.00 | 0.00 | 0.00 | 81 | 1009.7 |
| 20260905090040 | 66 | 346 | 1.0 | 3.0 | 0.00 | 0.00 | 0.00 | 81 | 1010.0 |
| 20260905084541 | 66 | 0 | 0.0 | 2.0 | 0.00 | 0.00 | 0.00 | 80 | 1010.0 |
| 20260905083038 | 67 | 0 | 0.0 | 0.0 | 0.00 | 0.00 | 0.00 | 80 | 1009.9 |
| 20260905081538 | 68 | 0 | 0.0 | 0.0 | 0.00 | 0.00 | 0.00 | 78 | 1010.0 |
| 20260905080048 | 68 | 0 | 0.0 | 0.0 | 0.00 | 0.00 | 0.00 | 77 | 1009.9 |
| 20260905074542 | 68 | 0 | 0.0 | 2.0 | 0.00 | 0.00 | 0.00 | 76 | 1009.9 |
| 20260905073039 | 68 | 269 | 1.0 | 3.0 | 0.00 | 0.00 | 0.00 | 75 | 1010.0 |
| 20260905071536 | 69 | 277 | 0.0 | 2.0 | 0.00 | 0.00 | 0.00 | 76 | 1010.0 |
| 20260905070041 | 69 | 0 | 0.0 | 2.0 | 0.00 | 0.00 | 0.00 | 76 | 1009.8 |
| 20260905064550 | 69 | 0 | 0.0 | 0.0 | 0.00 | 0.01 | 0.00 | 78 | 1009.9 |
| 20260905063039 | 69 | 0 | 0.0 | 2.0 | 0.00 | 0.01 | 0.00 | 76 | 1010.0 |
| 20260905061555 | 69 | 0 | 0.0 | 2.0 | 0.00 | 0.01 | 0.00 | 76 | 1010.1 |
| 20260905060041 | 69 | 0 | 0.0 | 0.0 | 0.00 | 0.01 | 0.00 | 76 | 1010.2 |
| 20260905054541 | 69 | 0 | 0.0 | 0.0 | 0.00 | 0.28 | 0.00 | 77 | 1010.3 |
| 20260905053040 | 69 | 0 | 0.0 | 0.0 | 0.00 | 0.28 | 0.00 | 77 | 1010.5 |
| 20260905051540 | 70 | 0 | 0.0 | 0.0 | 0.00 | 0.28 | 0.00 | 75 | 1010.7 |
| 20260905050042 | 70 | 0 | 0.0 | 0.0 | 0.00 | 0.28 | 0.00 | 75 | 1010.5 |
| 20260905044541 | 70 | 0 | 0.0 | 1.0 | 0.00 | 0.28 | 0.00 | 75 | 1010.5 |
| 20260905043038 | 70 | 334 | 1.0 | 2.0 | 0.00 | 0.28 | 0.00 | 75 | 1010.9 |
| 20260905041541 | 71 | 331 | 0.0 | 2.0 | 0.00 | 0.28 | 0.00 | 73 | 1010.9 |
| 20260905040041 | 71 | 9 | 0.0 | 3.0 | 0.00 | 0.28 | 0.00 | 73 | 1010.9 |
| 20260905034552 | 71 | 5 | 0.0 | 4.0 | 0.00 | 0.28 | 0.28 | 72 | 1010.7 |
| 20260905033038 | 71 | 306 | 1.0 | 5.0 | 0.00 | 0.28 | 0.28 | 73 | 1010.9 |
| 20260905031542 | 71 | 284 | 1.0 | 2.0 | 0.00 | 0.28 | 0.28 | 73 | 1010.9 |
| 20260905030040 | 71 | 352 | 1.0 | 3.0 | 0.00 | 0.28 | 0.28 | 73 | 1010.7 |
| 20260905024540 | 70 | 292 | 0.0 | 2.0 | 0.00 | 0.28 | 0.28 | 75 | 1010.8 |
| 20260905023040 | 71 | 302 | 0.0 | 2.0 | 0.00 | 0.28 | 0.28 | 73 | 1010.7 |
| 20260905021546 | 71 | 0 | 0.0 | 2.0 | 0.00 | 0.28 | 0.28 | 72 | 1010.9 |
| 20260905020042 | 72 | 296 | 1.0 | 3.0 | 0.00 | 0.28 | 0.28 | 70 | 1010.9 |
| 20260905014540 | 72 | 348 | 1.0 | 2.0 | 0.00 | 0.28 | 0.28 | 71 | 1010.7 |
| 20260905013038 | 72 | 294 | 1.0 | 2.0 | 0.00 | 0.28 | 0.28 | 71 | 1010.7 |
| 20260905011543 | 73 | 309 | 1.0 | 2.0 | 0.00 | 0.28 | 0.28 | 69 | 1010.9 |
| 20260905010035 | 73 | 300 | 0.0 | 2.0 | 0.00 | 0.28 | 0.28 | 68 | 1010.9 |
| 20260905004547 | 74 | 271 | 1.0 | 3.0 | 0.00 | 0.28 | 0.28 | 68 | 1010.6 |
| 20260905003040 | 73 | 0 | 0.0 | 0.0 | 0.00 | 0.28 | 0.28 | 67 | 1010.4 |
| 20260905001549 | 74 | 0 | 0.0 | 2.0 | 0.00 | 0.28 | 0.28 | 66 | 1010.5 |
| 20260905000041 | 75 | 0 | 0.0 | 2.0 | 0.00 | 0.28 | 0.28 | 63 | 1010.4 |
| 20260904234542 | 76 | 0 | 1.0 | 3.0 | 0.00 | 0.28 | 0.28 | 61 | 1010.5 |
| 20260904233044 | 77 | 304 | 1.0 | 4.0 | 0.00 | 0.28 | 0.28 | 60 | 1010.4 |
| 20260904231550 | 78 | 291 | 2.0 | 4.0 | 0.00 | 0.28 | 0.28 | 58 | 1010.4 |
| 20260904230045 | 79 | 319 | 2.0 | 4.0 | 0.00 | 0.28 | 0.28 | 56 | 1010.2 |
| 20260904224548 | 80 | 302 | 3.0 | 7.0 | 0.00 | 0.28 | 0.28 | 55 | 1010.3 |
| 20260904223055 | 80 | 15 | 2.0 | 4.0 | 0.00 | 0.28 | 0.28 | 56 | 1010.4 |
| 20260904221536 | 81 | 317 | 1.0 | 4.0 | 0.00 | 0.28 | 0.28 | 56 | 1010.5 |
| 20260904220037 | 82 | 274 | 2.0 | 8.0 | 0.00 | 0.28 | 0.28 | 55 | 1010.3 |
| 20260904214540 | 81 | 314 | 2.0 | 6.0 | 0.00 | 0.28 | 0.28 | 56 | 1010.2 |
| 20260904213042 | 81 | 325 | 2.0 | 5.0 | 0.00 | 0.28 | 0.28 | 57 | 1010.1 |
| 20260904211541 | 81 | 323 | 2.0 | 9.0 | 0.00 | 0.28 | 0.28 | 57 | 1010.1 |
| 20260904210056 | 81 | 277 | 2.0 | 8.0 | 0.00 | 0.28 | 0.28 | 57 | 1010.2 |
| 20260904204543 | 83 | 352 | 2.0 | 8.0 | 0.00 | 0.28 | 0.28 | 55 | 1010.4 |
| 20260904203040 | 82 | 269 | 4.0 | 10.0 | 0.00 | 0.28 | 0.28 | 53 | 1010.4 |
| 20260904201542 | 83 | 292 | 5.0 | 11.0 | 0.00 | 0.28 | 0.28 | 51 | 1010.4 |
| 20260904200039 | 83 | 296 | 3.0 | 9.0 | 0.00 | 0.28 | 0.28 | 53 | 1010.6 |
| 20260904194542 | 83 | 307 | 2.0 | 8.0 | 0.00 | 0.28 | 0.28 | 53 | 1010.4 |
| 20260904193047 | 85 | 319 | 2.0 | 11.0 | 0.00 | 0.28 | 0.28 | 50 | 1010.7 |
| 20260904191550 | 83 | 302 | 4.0 | 10.0 | 0.00 | 0.28 | 0.28 | 51 | 1011.0 |
| 20260904190042 | 84 | 24 | 4.0 | 11.0 | 0.00 | 0.28 | 0.28 | 49 | 1011.1 |
| 20260904184540 | 84 | 328 | 2.0 | 11.0 | 0.00 | 0.28 | 0.28 | 51 | 1011.1 |